sensor_id;sensor_type;location;lat;lon;timestamp;pressure;altitude;pressure_sealevel;temperature;humidity
16481;BME280;44634;54.110;12.138;2023-04-19T00:01:30;103159.16;;;8.98;100.00
16481;BME280;44634;54.110;12.138;2023-04-19T00:03:58;103149.91;;;9.65;100.00
16481;BME280;44634;54.110;12.138;2023-04-19T00:06:26;103158.34;;;8.96;100.00
16481;BME280;44634;54.110;12.138;2023-04-19T00:08:57;103145.72;;;8.84;100.00
16481;BME280;44634;54.110;12.138;2023-04-19T00:11:25;103153.56;;;9.43;100.00
16481;BME280;44634;54.110;12.138;2023-04-19T00:13:52;103149.56;;;9.53;100.00
16481;BME280;44634;54.110;12.138;2023-04-19T00:16:21;103146.13;;;9.33;100.00
16481;BME280;44634;54.110;12.138;2023-04-19T00:18:49;103148.19;;;8.67;100.00
16481;BME280;44634;54.110;12.138;2023-04-19T00:21:17;103139.06;;;9.14;100.00
16481;BME280;44634;54.110;12.138;2023-04-19T00:23:45;103144.56;;;8.89;100.00
16481;BME280;44634;54.110;12.138;2023-04-19T00:26:12;103135.44;;;8.57;100.00
16481;BME280;44634;54.110;12.138;2023-04-19T00:28:41;103120.94;;;9.25;100.00
16481;BME280;44634;54.110;12.138;2023-04-19T00:31:08;103125.88;;;8.94;100.00
16481;BME280;44634;54.110;12.138;2023-04-19T00:33:38;103134.16;;;8.66;100.00
16481;BME280;44634;54.110;12.138;2023-04-19T00:36:06;103126.34;;;9.22;100.00
16481;BME280;44634;54.110;12.138;2023-04-19T00:38:34;103125.06;;;8.73;100.00
16481;BME280;44634;54.110;12.138;2023-04-19T00:41:01;103124.03;;;8.96;100.00
16481;BME280;44634;54.110;12.138;2023-04-19T00:43:29;103129.38;;;8.55;100.00
16481;BME280;44634;54.110;12.138;2023-04-19T00:45:57;103123.09;;;8.58;100.00
16481;BME280;44634;54.110;12.138;2023-04-19T00:48:25;103125.22;;;8.28;100.00
16481;BME280;44634;54.110;12.138;2023-04-19T00:50:54;103121.72;;;8.70;100.00
16481;BME280;44634;54.110;12.138;2023-04-19T00:53:22;103122.41;;;8.93;100.00
16481;BME280;44634;54.110;12.138;2023-04-19T00:55:50;103117.81;;;8.78;100.00
16481;BME280;44634;54.110;12.138;2023-04-19T00:58:18;103126.31;;;8.44;100.00
16481;BME280;44634;54.110;12.138;2023-04-19T01:00:46;103120.38;;;7.95;100.00
16481;BME280;44634;54.110;12.138;2023-04-19T01:03:13;103106.72;;;8.90;100.00
16481;BME280;44634;54.110;12.138;2023-04-19T01:05:42;103118.34;;;8.86;100.00
16481;BME280;44634;54.110;12.138;2023-04-19T01:08:11;103112.28;;;8.84;100.00
16481;BME280;44634;54.110;12.138;2023-04-19T01:10:39;103115.91;;;8.41;100.00
16481;BME280;44634;54.110;12.138;2023-04-19T01:13:07;103110.22;;;9.10;100.00
16481;BME280;44634;54.110;12.138;2023-04-19T01:15:35;103112.53;;;8.38;100.00
16481;BME280;44634;54.110;12.138;2023-04-19T01:18:03;103111.25;;;8.26;100.00
16481;BME280;44634;54.110;12.138;2023-04-19T01:20:31;103101.88;;;8.61;100.00
16481;BME280;44634;54.110;12.138;2023-04-19T01:23:00;103099.28;;;8.59;100.00
16481;BME280;44634;54.110;12.138;2023-04-19T01:25:28;103093.19;;;8.98;100.00
16481;BME280;44634;54.110;12.138;2023-04-19T01:27:56;103089.25;;;8.27;100.00
16481;BME280;44634;54.110;12.138;2023-04-19T01:30:24;103079.50;;;8.29;100.00
16481;BME280;44634;54.110;12.138;2023-04-19T01:32:51;103079.00;;;8.41;100.00
16481;BME280;44634;54.110;12.138;2023-04-19T01:35:19;103070.69;;;8.71;100.00
16481;BME280;44634;54.110;12.138;2023-04-19T01:37:47;103070.13;;;8.83;100.00
16481;BME280;44634;54.110;12.138;2023-04-19T01:40:18;103071.56;;;8.90;100.00
16481;BME280;44634;54.110;12.138;2023-04-19T01:42:45;103078.94;;;8.82;100.00
16481;BME280;44634;54.110;12.138;2023-04-19T01:45:13;103066.03;;;9.15;100.00
16481;BME280;44634;54.110;12.138;2023-04-19T01:47:41;103065.38;;;9.29;100.00
16481;BME280;44634;54.110;12.138;2023-04-19T01:50:09;103072.41;;;8.90;100.00
16481;BME280;44634;54.110;12.138;2023-04-19T01:52:37;103057.75;;;8.64;100.00
16481;BME280;44634;54.110;12.138;2023-04-19T01:55:05;103055.00;;;8.47;100.00
16481;BME280;44634;54.110;12.138;2023-04-19T01:57:35;103055.28;;;8.80;100.00
16481;BME280;44634;54.110;12.138;2023-04-19T02:00:03;103060.28;;;8.86;100.00
16481;BME280;44634;54.110;12.138;2023-04-19T02:02:31;103061.75;;;9.12;100.00
16481;BME280;44634;54.110;12.138;2023-04-19T02:04:59;103061.56;;;8.78;100.00
16481;BME280;44634;54.110;12.138;2023-04-19T02:07:27;103048.44;;;8.95;100.00
16481;BME280;44634;54.110;12.138;2023-04-19T02:09:55;103053.88;;;9.11;100.00
16481;BME280;44634;54.110;12.138;2023-04-19T02:12:26;103050.13;;;8.98;100.00
16481;BME280;44634;54.110;12.138;2023-04-19T02:14:56;103054.31;;;8.83;100.00
16481;BME280;44634;54.110;12.138;2023-04-19T02:17:25;103054.09;;;8.87;100.00
16481;BME280;44634;54.110;12.138;2023-04-19T02:19:53;103055.69;;;9.29;100.00
16481;BME280;44634;54.110;12.138;2023-04-19T02:22:21;103049.38;;;9.32;100.00
16481;BME280;44634;54.110;12.138;2023-04-19T02:24:49;103049.97;;;9.19;100.00
16481;BME280;44634;54.110;12.138;2023-04-19T02:27:17;103055.72;;;8.90;100.00
16481;BME280;44634;54.110;12.138;2023-04-19T02:29:45;103050.34;;;9.12;100.00
16481;BME280;44634;54.110;12.138;2023-04-19T02:32:14;103046.19;;;9.06;100.00
16481;BME280;44634;54.110;12.138;2023-04-19T02:34:42;103048.59;;;8.92;100.00
16481;BME280;44634;54.110;12.138;2023-04-19T02:37:09;103038.16;;;8.70;100.00
16481;BME280;44634;54.110;12.138;2023-04-19T02:39:37;103038.78;;;8.56;100.00
16481;BME280;44634;54.110;12.138;2023-04-19T02:42:07;103033.25;;;8.42;100.00
16481;BME280;44634;54.110;12.138;2023-04-19T02:44:34;103040.53;;;8.95;100.00
16481;BME280;44634;54.110;12.138;2023-04-19T02:47:02;103042.41;;;8.54;100.00
16481;BME280;44634;54.110;12.138;2023-04-19T02:49:31;103033.97;;;8.85;100.00
16481;BME280;44634;54.110;12.138;2023-04-19T02:52:01;103035.47;;;8.90;100.00
16481;BME280;44634;54.110;12.138;2023-04-19T02:54:29;103034.91;;;8.84;100.00
16481;BME280;44634;54.110;12.138;2023-04-19T02:56:58;103038.13;;;8.90;100.00
16481;BME280;44634;54.110;12.138;2023-04-19T02:59:26;103029.72;;;9.01;100.00
16481;BME280;44634;54.110;12.138;2023-04-19T03:01:54;103033.69;;;8.91;100.00
16481;BME280;44634;54.110;12.138;2023-04-19T03:04:22;103029.94;;;9.15;100.00
16481;BME280;44634;54.110;12.138;2023-04-19T03:06:51;103028.63;;;9.43;100.00
16481;BME280;44634;54.110;12.138;2023-04-19T03:09:19;103029.13;;;9.32;100.00
16481;BME280;44634;54.110;12.138;2023-04-19T03:11:47;103018.28;;;8.82;100.00
16481;BME280;44634;54.110;12.138;2023-04-19T03:14:14;103021.00;;;8.99;100.00
16481;BME280;44634;54.110;12.138;2023-04-19T03:16:42;103019.88;;;8.47;100.00
16481;BME280;44634;54.110;12.138;2023-04-19T03:19:10;103016.16;;;8.30;100.00
16481;BME280;44634;54.110;12.138;2023-04-19T03:21:38;103000.59;;;8.65;100.00
16481;BME280;44634;54.110;12.138;2023-04-19T03:24:08;103005.44;;;8.35;100.00
16481;BME280;44634;54.110;12.138;2023-04-19T03:26:35;103000.41;;;8.29;100.00
16481;BME280;44634;54.110;12.138;2023-04-19T03:29:03;102991.72;;;8.47;100.00
16481;BME280;44634;54.110;12.138;2023-04-19T03:31:31;102991.59;;;8.30;100.00
16481;BME280;44634;54.110;12.138;2023-04-19T03:33:59;102990.25;;;8.60;100.00
16481;BME280;44634;54.110;12.138;2023-04-19T03:36:27;102988.31;;;8.45;100.00
16481;BME280;44634;54.110;12.138;2023-04-19T03:38:54;102981.47;;;8.41;100.00
16481;BME280;44634;54.110;12.138;2023-04-19T03:41:25;102979.16;;;8.73;100.00
16481;BME280;44634;54.110;12.138;2023-04-19T03:43:53;102978.69;;;8.44;100.00
16481;BME280;44634;54.110;12.138;2023-04-19T03:46:21;102978.69;;;8.44;100.00
16481;BME280;44634;54.110;12.138;2023-04-19T03:48:49;102971.09;;;8.76;100.00
16481;BME280;44634;54.110;12.138;2023-04-19T03:51:16;102979.56;;;8.63;100.00
16481;BME280;44634;54.110;12.138;2023-04-19T03:53:44;102967.84;;;8.11;100.00
16481;BME280;44634;54.110;12.138;2023-04-19T03:56:12;102959.59;;;8.39;100.00
16481;BME280;44634;54.110;12.138;2023-04-19T03:58:41;102975.25;;;8.22;100.00
16481;BME280;44634;54.110;12.138;2023-04-19T04:01:16;102964.09;;;8.56;100.00
16481;BME280;44634;54.110;12.138;2023-04-19T04:03:44;102959.16;;;8.67;100.00
16481;BME280;44634;54.110;12.138;2023-04-19T04:06:12;102968.16;;;8.82;100.00
16481;BME280;44634;54.110;12.138;2023-04-19T04:08:40;102958.31;;;8.48;100.00
16481;BME280;44634;54.110;12.138;2023-04-19T04:11:08;102958.56;;;8.21;100.00
16481;BME280;44634;54.110;12.138;2023-04-19T04:13:36;102949.91;;;8.58;100.00
16481;BME280;44634;54.110;12.138;2023-04-19T04:16:05;102956.75;;;8.62;100.00
16481;BME280;44634;54.110;12.138;2023-04-19T04:18:33;102956.56;;;8.86;100.00
16481;BME280;44634;54.110;12.138;2023-04-19T04:21:01;102960.91;;;8.68;100.00
16481;BME280;44634;54.110;12.138;2023-04-19T04:23:29;102961.97;;;8.83;100.00
16481;BME280;44634;54.110;12.138;2023-04-19T04:25:57;102961.03;;;8.65;100.00
16481;BME280;44634;54.110;12.138;2023-04-19T04:28:26;102955.09;;;9.16;100.00
16481;BME280;44634;54.110;12.138;2023-04-19T04:30:54;102960.38;;;8.60;100.00
16481;BME280;44634;54.110;12.138;2023-04-19T04:33:24;102963.25;;;8.93;100.00
16481;BME280;44634;54.110;12.138;2023-04-19T04:35:53;102965.44;;;9.02;100.00
16481;BME280;44634;54.110;12.138;2023-04-19T04:38:22;102957.88;;;8.94;100.00
16481;BME280;44634;54.110;12.138;2023-04-19T04:40:51;102972.88;;;9.13;100.00
16481;BME280;44634;54.110;12.138;2023-04-19T04:43:19;102965.81;;;8.76;100.00
16481;BME280;44634;54.110;12.138;2023-04-19T04:45:48;102959.88;;;9.27;100.00
16481;BME280;44634;54.110;12.138;2023-04-19T04:48:16;102956.81;;;9.17;100.00
16481;BME280;44634;54.110;12.138;2023-04-19T04:50:45;102958.06;;;9.28;100.00
16481;BME280;44634;54.110;12.138;2023-04-19T04:53:13;102958.06;;;9.28;100.00
16481;BME280;44634;54.110;12.138;2023-04-19T04:55:41;102959.59;;;8.95;100.00
16481;BME280;44634;54.110;12.138;2023-04-19T04:58:09;102966.63;;;9.50;100.00
16481;BME280;44634;54.110;12.138;2023-04-19T05:00:36;102959.78;;;9.29;100.00
16481;BME280;44634;54.110;12.138;2023-04-19T05:03:05;102961.53;;;8.92;100.00
16481;BME280;44634;54.110;12.138;2023-04-19T05:05:33;102960.56;;;9.31;100.00
16481;BME280;44634;54.110;12.138;2023-04-19T05:08:03;102963.00;;;9.52;100.00
16481;BME280;44634;54.110;12.138;2023-04-19T05:10:30;102962.44;;;9.46;100.00
16481;BME280;44634;54.110;12.138;2023-04-19T05:13:01;102965.09;;;9.46;100.00
16481;BME280;44634;54.110;12.138;2023-04-19T05:15:31;102960.34;;;9.52;100.00
16481;BME280;44634;54.110;12.138;2023-04-19T05:17:58;102966.69;;;9.31;100.00
16481;BME280;44634;54.110;12.138;2023-04-19T05:20:27;102957.13;;;9.11;100.00
16481;BME280;44634;54.110;12.138;2023-04-19T05:22:58;102963.56;;;9.76;100.00
16481;BME280;44634;54.110;12.138;2023-04-19T05:25:28;102965.44;;;9.74;100.00
16481;BME280;44634;54.110;12.138;2023-04-19T05:27:56;102970.53;;;9.60;100.00
16481;BME280;44634;54.110;12.138;2023-04-19T05:30:24;102966.78;;;9.47;100.00
16481;BME280;44634;54.110;12.138;2023-04-19T05:32:52;102968.50;;;9.82;100.00
16481;BME280;44634;54.110;12.138;2023-04-19T05:35:20;102967.59;;;9.83;100.00
16481;BME280;44634;54.110;12.138;2023-04-19T05:37:47;102963.75;;;9.54;100.00
16481;BME280;44634;54.110;12.138;2023-04-19T05:40:15;102959.03;;;9.96;100.00
16481;BME280;44634;54.110;12.138;2023-04-19T05:42:46;102951.97;;;10.13;100.00
16481;BME280;44634;54.110;12.138;2023-04-19T05:45:14;102965.88;;;9.82;100.00
16481;BME280;44634;54.110;12.138;2023-04-19T05:47:43;102947.78;;;9.58;100.00
16481;BME280;44634;54.110;12.138;2023-04-19T05:50:11;102954.63;;;9.79;100.00
16481;BME280;44634;54.110;12.138;2023-04-19T05:52:40;102954.47;;;9.65;100.00
16481;BME280;44634;54.110;12.138;2023-04-19T05:55:08;102952.44;;;10.04;100.00
16481;BME280;44634;54.110;12.138;2023-04-19T05:57:36;102958.38;;;10.42;100.00
16481;BME280;44634;54.110;12.138;2023-04-19T06:00:08;102954.16;;;9.88;100.00
16481;BME280;44634;54.110;12.138;2023-04-19T06:02:36;102963.22;;;9.82;100.00
16481;BME280;44634;54.110;12.138;2023-04-19T06:05:04;102959.75;;;9.99;100.00
16481;BME280;44634;54.110;12.138;2023-04-19T06:07:36;102954.31;;;9.85;100.00
16481;BME280;44634;54.110;12.138;2023-04-19T06:10:12;102966.50;;;10.05;100.00
16481;BME280;44634;54.110;12.138;2023-04-19T06:12:40;102960.53;;;10.01;100.00
16481;BME280;44634;54.110;12.138;2023-04-19T06:15:10;102964.09;;;10.51;100.00
16481;BME280;44634;54.110;12.138;2023-04-19T06:17:38;102961.03;;;10.42;100.00
16481;BME280;44634;54.110;12.138;2023-04-19T06:20:07;102958.31;;;10.09;100.00
16481;BME280;44634;54.110;12.138;2023-04-19T06:22:41;102957.84;;;10.19;100.00
16481;BME280;44634;54.110;12.138;2023-04-19T06:25:09;102964.03;;;10.84;100.00
16481;BME280;44634;54.110;12.138;2023-04-19T06:27:36;102961.81;;;10.60;100.00
16481;BME280;44634;54.110;12.138;2023-04-19T06:30:05;102956.19;;;10.82;100.00
16481;BME280;44634;54.110;12.138;2023-04-19T06:32:35;102962.88;;;10.73;100.00
16481;BME280;44634;54.110;12.138;2023-04-19T06:35:04;102949.31;;;11.41;100.00
16481;BME280;44634;54.110;12.138;2023-04-19T06:37:32;102956.38;;;10.79;100.00
16481;BME280;44634;54.110;12.138;2023-04-19T06:40:00;102970.31;;;10.50;100.00
16481;BME280;44634;54.110;12.138;2023-04-19T06:42:28;102960.41;;;10.70;100.00
16481;BME280;44634;54.110;12.138;2023-04-19T06:44:55;102964.09;;;10.51;100.00
16481;BME280;44634;54.110;12.138;2023-04-19T06:47:23;102960.47;;;11.16;100.00
16481;BME280;44634;54.110;12.138;2023-04-19T06:49:52;102966.72;;;10.99;100.00
16481;BME280;44634;54.110;12.138;2023-04-19T06:52:20;102969.53;;;10.81;100.00
16481;BME280;44634;54.110;12.138;2023-04-19T06:54:48;102962.50;;;11.11;100.00
16481;BME280;44634;54.110;12.138;2023-04-19T06:57:17;102960.31;;;10.72;100.00
16481;BME280;44634;54.110;12.138;2023-04-19T06:59:45;102961.91;;;10.59;100.00
16481;BME280;44634;54.110;12.138;2023-04-19T07:02:13;102952.69;;;11.13;100.00
16481;BME280;44634;54.110;12.138;2023-04-19T07:04:41;102961.16;;;11.04;100.00
16481;BME280;44634;54.110;12.138;2023-04-19T07:07:11;102950.06;;;10.97;100.00
16481;BME280;44634;54.110;12.138;2023-04-19T07:09:39;102949.38;;;10.78;100.00
16481;BME280;44634;54.110;12.138;2023-04-19T07:12:06;102947.25;;;11.00;100.00
16481;BME280;44634;54.110;12.138;2023-04-19T07:14:34;102944.03;;;11.41;100.00
16481;BME280;44634;54.110;12.138;2023-04-19T07:17:03;102935.81;;;12.06;100.00
16481;BME280;44634;54.110;12.138;2023-04-19T07:19:31;102934.03;;;11.76;100.00
16481;BME280;44634;54.110;12.138;2023-04-19T07:22:00;102934.56;;;11.67;100.00
16481;BME280;44634;54.110;12.138;2023-04-19T07:24:30;102931.44;;;12.05;100.00
16481;BME280;44634;54.110;12.138;2023-04-19T07:26:58;102943.63;;;11.33;100.00
16481;BME280;44634;54.110;12.138;2023-04-19T07:29:27;102929.66;;;11.75;100.00
16481;BME280;44634;54.110;12.138;2023-04-19T07:31:55;102927.84;;;12.06;100.00
16481;BME280;44634;54.110;12.138;2023-04-19T07:34:25;102929.66;;;11.75;100.00
16481;BME280;44634;54.110;12.138;2023-04-19T07:36:52;102929.31;;;11.81;100.00
16481;BME280;44634;54.110;12.138;2023-04-19T07:39:20;102925.47;;;11.87;100.00
16481;BME280;44634;54.110;12.138;2023-04-19T07:41:49;102925.00;;;11.95;100.00
16481;BME280;44634;54.110;12.138;2023-04-19T07:44:17;102918.47;;;12.29;100.00
16481;BME280;44634;54.110;12.138;2023-04-19T07:46:45;102925.00;;;12.09;99.96
16481;BME280;44634;54.110;12.138;2023-04-19T07:49:13;102917.53;;;12.15;100.00
16481;BME280;44634;54.110;12.138;2023-04-19T07:51:41;102907.75;;;12.59;98.91
16481;BME280;44634;54.110;12.138;2023-04-19T07:54:08;102906.53;;;12.50;99.58
16481;BME280;44634;54.110;12.138;2023-04-19T07:56:36;102910.31;;;12.60;98.40
16481;BME280;44634;54.110;12.138;2023-04-19T07:59:06;102913.84;;;12.32;94.46
16481;BME280;44634;54.110;12.138;2023-04-19T08:01:35;102914.97;;;12.28;95.37
16481;BME280;44634;54.110;12.138;2023-04-19T08:04:03;102914.97;;;12.28;95.39
16481;BME280;44634;54.110;12.138;2023-04-19T08:06:32;102907.25;;;12.66;94.09
16481;BME280;44634;54.110;12.138;2023-04-19T08:09:00;102923.41;;;12.35;93.34
16481;BME280;44634;54.110;12.138;2023-04-19T08:11:28;102907.56;;;13.16;86.39
16481;BME280;44634;54.110;12.138;2023-04-19T08:13:56;102911.75;;;12.93;82.78
16481;BME280;44634;54.110;12.138;2023-04-19T08:16:45;102908.63;;;12.02;91.42
16481;BME280;44634;54.110;12.138;2023-04-19T08:19:16;102905.44;;;12.67;88.50
16481;BME280;44634;54.110;12.138;2023-04-19T08:21:44;102891.56;;;12.90;88.36
16481;BME280;44634;54.110;12.138;2023-04-19T08:24:11;102891.53;;;12.63;85.83
16481;BME280;44634;54.110;12.138;2023-04-19T08:26:39;102889.91;;;12.75;85.08
16481;BME280;44634;54.110;12.138;2023-04-19T08:29:07;102894.44;;;13.00;80.02
16481;BME280;44634;54.110;12.138;2023-04-19T08:31:35;102886.34;;;12.89;81.70
16481;BME280;44634;54.110;12.138;2023-04-19T08:34:04;102878.28;;;13.17;80.98
16481;BME280;44634;54.110;12.138;2023-04-19T08:36:32;102886.69;;;12.97;81.56
16481;BME280;44634;54.110;12.138;2023-04-19T08:39:06;102885.56;;;12.87;79.36
16481;BME280;44634;54.110;12.138;2023-04-19T08:41:50;102888.13;;;12.61;86.45
16481;BME280;44634;54.110;12.138;2023-04-19T08:44:31;102882.78;;;13.29;81.93
16481;BME280;44634;54.110;12.138;2023-04-19T08:47:04;102879.31;;;13.15;81.70
16481;BME280;44634;54.110;12.138;2023-04-19T08:49:35;102880.28;;;13.53;78.06
16481;BME280;44634;54.110;12.138;2023-04-19T08:52:08;102874.22;;;12.85;67.93
16481;BME280;44634;54.110;12.138;2023-04-19T08:54:36;102873.81;;;12.91;56.34
16481;BME280;44634;54.110;12.138;2023-04-19T08:57:05;102877.03;;;13.23;56.75
16481;BME280;44634;54.110;12.138;2023-04-19T08:59:34;102871.22;;;13.03;58.70
16481;BME280;44634;54.110;12.138;2023-04-19T09:02:01;102866.13;;;12.86;55.24
16481;BME280;44634;54.110;12.138;2023-04-19T09:04:30;102858.63;;;12.93;52.92
16481;BME280;44634;54.110;12.138;2023-04-19T09:07:04;102862.97;;;13.60;50.91
16481;BME280;44634;54.110;12.138;2023-04-19T09:09:33;102859.47;;;13.60;52.77
16481;BME280;44634;54.110;12.138;2023-04-19T09:12:21;102850.94;;;13.02;47.77
16481;BME280;44634;54.110;12.138;2023-04-19T09:14:48;102852.28;;;12.95;48.06
16481;BME280;44634;54.110;12.138;2023-04-19T09:17:19;102847.50;;;13.00;50.38
16481;BME280;44634;54.110;12.138;2023-04-19T09:19:48;102845.41;;;13.32;48.13
16481;BME280;44634;54.110;12.138;2023-04-19T09:22:17;102838.22;;;13.60;49.27
16481;BME280;44634;54.110;12.138;2023-04-19T09:24:45;102844.16;;;13.63;48.92
16481;BME280;44634;54.110;12.138;2023-04-19T09:27:24;102844.41;;;14.35;46.92
16481;BME280;44634;54.110;12.138;2023-04-19T09:29:52;102822.97;;;13.87;44.35
16481;BME280;44634;54.110;12.138;2023-04-19T09:32:21;102836.06;;;13.65;46.07
16481;BME280;44634;54.110;12.138;2023-04-19T09:34:54;102839.03;;;13.98;43.56
16481;BME280;44634;54.110;12.138;2023-04-19T09:37:24;102830.63;;;14.41;42.87
16481;BME280;44634;54.110;12.138;2023-04-19T09:39:54;102831.81;;;14.98;41.25
16481;BME280;44634;54.110;12.138;2023-04-19T09:42:22;102830.53;;;14.79;41.80
16481;BME280;44634;54.110;12.138;2023-04-19T09:45:10;102823.75;;;15.57;41.76
16481;BME280;44634;54.110;12.138;2023-04-19T09:48:03;102824.13;;;15.17;39.53
16481;BME280;44634;54.110;12.138;2023-04-19T09:50:33;102822.53;;;15.50;38.99
16481;BME280;44634;54.110;12.138;2023-04-19T09:53:22;102817.66;;;14.97;38.63
16481;BME280;44634;54.110;12.138;2023-04-19T09:55:50;102801.63;;;15.67;38.08
16481;BME280;44634;54.110;12.138;2023-04-19T09:58:27;102813.09;;;15.10;37.90
16481;BME280;44634;54.110;12.138;2023-04-19T10:01:12;102805.28;;;14.96;39.55
16481;BME280;44634;54.110;12.138;2023-04-19T10:03:44;102817.25;;;15.26;39.51
16481;BME280;44634;54.110;12.138;2023-04-19T10:06:15;102798.84;;;15.91;37.21
16481;BME280;44634;54.110;12.138;2023-04-19T10:09:04;102797.03;;;15.23;37.87
16481;BME280;44634;54.110;12.138;2023-04-19T10:11:33;102795.06;;;14.42;39.37
16481;BME280;44634;54.110;12.138;2023-04-19T10:14:06;102810.00;;;13.95;39.63
16481;BME280;44634;54.110;12.138;2023-04-19T10:16:36;102802.06;;;14.56;39.70
16481;BME280;44634;54.110;12.138;2023-04-19T10:19:07;102788.03;;;14.78;38.38
16481;BME280;44634;54.110;12.138;2023-04-19T10:21:36;102800.50;;;14.77;38.72
16481;BME280;44634;54.110;12.138;2023-04-19T10:24:07;102786.72;;;15.30;37.75
16481;BME280;44634;54.110;12.138;2023-04-19T10:27:07;102786.22;;;15.93;37.20
16481;BME280;44634;54.110;12.138;2023-04-19T10:29:56;102790.53;;;15.50;36.71
16481;BME280;44634;54.110;12.138;2023-04-19T10:32:27;102806.44;;;15.05;37.02
16481;BME280;44634;54.110;12.138;2023-04-19T10:35:00;102808.19;;;14.69;38.30
16481;BME280;44634;54.110;12.138;2023-04-19T10:37:30;102803.72;;;14.70;38.28
16481;BME280;44634;54.110;12.138;2023-04-19T10:39:59;102794.28;;;14.66;38.10
16481;BME280;44634;54.110;12.138;2023-04-19T10:45:31;102797.72;;;14.42;39.47
16481;BME280;44634;54.110;12.138;2023-04-19T10:48:01;102798.97;;;14.62;38.63
16481;BME280;44634;54.110;12.138;2023-04-19T10:50:59;102787.31;;;14.39;37.73
16481;BME280;44634;54.110;12.138;2023-04-19T10:53:43;102802.81;;;14.82;36.12
16481;BME280;44634;54.110;12.138;2023-04-19T10:56:13;102781.38;;;14.83;35.16
16481;BME280;44634;54.110;12.138;2023-04-19T10:59:15;102800.09;;;14.71;35.22
16481;BME280;44634;54.110;12.138;2023-04-19T11:01:54;102796.28;;;14.86;36.31
16481;BME280;44634;54.110;12.138;2023-04-19T11:07:39;102787.75;;;14.70;35.96
16481;BME280;44634;54.110;12.138;2023-04-19T11:10:08;102788.53;;;14.59;36.82
16481;BME280;44634;54.110;12.138;2023-04-19T11:12:41;102795.78;;;14.20;36.76
16481;BME280;44634;54.110;12.138;2023-04-19T11:15:09;102781.75;;;14.55;36.39
16481;BME280;44634;54.110;12.138;2023-04-19T11:17:37;102776.34;;;14.44;35.24
16481;BME280;44634;54.110;12.138;2023-04-19T11:20:07;102776.59;;;14.04;36.09
16481;BME280;44634;54.110;12.138;2023-04-19T11:22:37;102797.06;;;14.15;35.16
16481;BME280;44634;54.110;12.138;2023-04-19T11:25:09;102785.03;;;14.82;35.20
16481;BME280;44634;54.110;12.138;2023-04-19T11:27:40;102778.56;;;15.09;34.18
16481;BME280;44634;54.110;12.138;2023-04-19T11:30:10;102757.13;;;16.77;32.46
16481;BME280;44634;54.110;12.138;2023-04-19T11:32:44;102771.41;;;16.87;31.24
16481;BME280;44634;54.110;12.138;2023-04-19T11:35:12;102751.72;;;16.56;30.52
16481;BME280;44634;54.110;12.138;2023-04-19T11:37:40;102762.41;;;16.67;30.53
16481;BME280;44634;54.110;12.138;2023-04-19T11:40:08;102764.56;;;16.73;29.93
16481;BME280;44634;54.110;12.138;2023-04-19T11:42:42;102761.44;;;16.02;31.15
16481;BME280;44634;54.110;12.138;2023-04-19T11:45:11;102752.84;;;16.10;30.93
16481;BME280;44634;54.110;12.138;2023-04-19T11:47:54;102748.47;;;16.20;30.13
16481;BME280;44634;54.110;12.138;2023-04-19T11:50:33;102739.63;;;15.53;30.73
16481;BME280;44634;54.110;12.138;2023-04-19T11:53:09;102745.47;;;15.80;30.15
16481;BME280;44634;54.110;12.138;2023-04-19T11:55:37;102730.97;;;16.27;29.30
16481;BME280;44634;54.110;12.138;2023-04-19T11:58:07;102750.44;;;15.96;29.96
16481;BME280;44634;54.110;12.138;2023-04-19T12:00:36;102761.09;;;15.96;29.95
16481;BME280;44634;54.110;12.138;2023-04-19T12:03:03;102734.28;;;16.09;29.83
16481;BME280;44634;54.110;12.138;2023-04-19T12:05:32;102745.50;;;16.99;28.62
16481;BME280;44634;54.110;12.138;2023-04-19T12:08:01;102752.59;;;17.30;28.55
16481;BME280;44634;54.110;12.138;2023-04-19T12:10:29;102749.75;;;17.83;28.08
16481;BME280;44634;54.110;12.138;2023-04-19T12:12:57;102742.34;;;17.14;28.42
16481;BME280;44634;54.110;12.138;2023-04-19T12:15:42;102736.06;;;17.46;27.17
16481;BME280;44634;54.110;12.138;2023-04-19T12:18:10;102740.25;;;16.76;27.64
16481;BME280;44634;54.110;12.138;2023-04-19T12:20:43;102725.81;;;17.91;27.00
16481;BME280;44634;54.110;12.138;2023-04-19T12:23:11;102736.09;;;17.04;26.93
16481;BME280;44634;54.110;12.138;2023-04-19T12:25:42;102729.13;;;17.13;26.79
16481;BME280;44634;54.110;12.138;2023-04-19T12:28:10;102724.06;;;17.40;26.64
16481;BME280;44634;54.110;12.138;2023-04-19T12:30:38;102715.72;;;17.95;26.76
16481;BME280;44634;54.110;12.138;2023-04-19T12:33:07;102720.06;;;17.55;26.42
16481;BME280;44634;54.110;12.138;2023-04-19T12:35:35;102722.34;;;17.09;26.85
16481;BME280;44634;54.110;12.138;2023-04-19T12:38:04;102708.13;;;16.87;27.26
16481;BME280;44634;54.110;12.138;2023-04-19T12:40:32;102716.63;;;17.44;26.63
16481;BME280;44634;54.110;12.138;2023-04-19T12:43:00;102716.09;;;16.99;26.72
16481;BME280;44634;54.110;12.138;2023-04-19T12:45:28;102717.00;;;17.09;26.19
16481;BME280;44634;54.110;12.138;2023-04-19T12:47:56;102699.69;;;17.34;26.87
16481;BME280;44634;54.110;12.138;2023-04-19T12:50:25;102708.09;;;17.60;25.84
16481;BME280;44634;54.110;12.138;2023-04-19T12:52:53;102700.94;;;18.20;25.42
16481;BME280;44634;54.110;12.138;2023-04-19T12:55:20;102699.03;;;17.72;26.10
16481;BME280;44634;54.110;12.138;2023-04-19T12:57:48;102709.97;;;16.55;27.02